Time;durP1;ratioP1;P1;durP2;ratioP2;P2;SDS_P1;SDS_P2;PMS_P1;PMS_P2;Temp;Humidity;BMP_temperature;BMP_pressure;BME280_temperature;BME280_humidity;BME280_pressure;Samples;Min_cycle;Max_cycle;Signal;HPM_P1;HPM_P2
2022/07/20 00:00:05;;;;;;;;;;;17.50;99.90;;;;;;5072863;28;20418;-75
2022/07/20 00:02:31;;;;;;;;;;;17.50;99.90;;;;;;5055839;28;19951;-75
2022/07/20 00:04:56;;;;;;;;;;;17.40;99.90;;;;;;5073400;28;19951;-75
2022/07/20 00:07:22;;;;;;;;;;;17.30;99.90;;;;;;5073487;28;19911;-76
2022/07/20 00:12:32;;;;;;;;;;;17.30;99.90;;;;;;5073233;28;19912;-76
2022/07/20 00:14:57;;;;;;;;;;;17.30;99.90;;;;;;5072821;28;19908;-76
2022/07/20 00:17:23;;;;;;;;;;;17.30;99.90;;;;;;5073400;28;20347;-75
2022/07/20 00:19:48;;;;;;;;;;;17.30;99.90;;;;;;5072908;28;19999;-75
2022/07/20 00:22:14;;;;;;;;;;;17.30;99.90;;;;;;5072507;28;20362;-75
2022/07/20 00:24:40;;;;;;;;;;;17.30;99.90;;;;;;5073354;28;19905;-75
2022/07/20 00:27:05;;;;;;;;;;;17.20;99.90;;;;;;5072549;28;19904;-75
2022/07/20 00:29:31;;;;;;;;;;;17.20;99.90;;;;;;5073060;28;20321;-75
2022/07/20 00:31:56;;;;;;;;;;;17.30;99.90;;;;;;5072757;28;19942;-75
2022/07/20 00:34:22;;;;;;;;;;;17.20;99.90;;;;;;5072771;28;19954;-75
2022/07/20 00:36:47;;;;;;;;;;;17.20;99.90;;;;;;5073145;28;20410;-76
2022/07/20 00:39:13;;;;;;;;;;;17.30;99.90;;;;;;5072497;28;19912;-75
2022/07/20 00:41:38;;;;;;;;;;;17.20;99.90;;;;;;5073368;28;19904;-75
2022/07/20 00:44:06;;;;;;;;;;;17.20;99.90;;;;;;5072143;28;19919;-75
2022/07/20 00:46:33;;;;;;;;;;;17.20;99.90;;;;;;5072663;28;19916;-75
2022/07/20 00:48:58;;;;;;;;;;;17.20;99.90;;;;;;5072297;28;19912;-75
2022/07/20 00:51:24;;;;;;;;;;;17.20;99.90;;;;;;5072714;28;19911;-75
2022/07/20 00:53:51;;;;;;;;;;;17.20;99.90;;;;;;5072918;28;19904;-75
2022/07/20 00:56:17;;;;;;;;;;;17.20;99.90;;;;;;5072140;28;19996;-75
2022/07/20 00:58:42;;;;;;;;;;;17.20;99.90;;;;;;5072799;28;20363;-75
2022/07/20 01:01:08;;;;;;;;;;;17.20;99.90;;;;;;5072358;28;19905;-75
2022/07/20 01:03:34;;;;;;;;;;;17.20;99.90;;;;;;5072741;28;19950;-75
2022/07/20 01:05:59;;;;;;;;;;;17.10;99.90;;;;;;5071315;28;19951;-75
2022/07/20 01:08:26;;;;;;;;;;;17.20;99.90;;;;;;5072181;28;19911;-76
2022/07/20 01:10:52;;;;;;;;;;;17.20;99.90;;;;;;5072804;28;20236;-75
2022/07/20 01:13:17;;;;;;;;;;;17.10;99.90;;;;;;5071928;28;20008;-75
2022/07/20 01:15:43;;;;;;;;;;;17.00;99.90;;;;;;5072236;28;19912;-76
2022/07/20 01:18:08;;;;;;;;;;;17.10;99.90;;;;;;5072082;28;19908;-76
2022/07/20 01:20:35;;;;;;;;;;;17.00;99.90;;;;;;5072580;28;19905;-75
2022/07/20 01:23:01;;;;;;;;;;;17.00;99.90;;;;;;5053902;28;19905;-75
2022/07/20 01:25:26;;;;;;;;;;;17.00;99.90;;;;;;5072351;28;19953;-75
2022/07/20 01:27:55;;;;;;;;;;;17.00;99.90;;;;;;5072531;28;19912;-75
2022/07/20 01:30:20;;;;;;;;;;;17.00;99.90;;;;;;5071918;28;19908;-75
2022/07/20 01:32:46;;;;;;;;;;;17.00;99.90;;;;;;5072283;28;19905;-75
2022/07/20 01:35:11;;;;;;;;;;;17.10;99.90;;;;;;5071825;28;20343;-74
2022/07/20 01:37:37;;;;;;;;;;;17.20;99.90;;;;;;5072183;28;19908;-76
2022/07/20 01:40:03;;;;;;;;;;;17.20;99.90;;;;;;5071663;28;19935;-76
2022/07/20 01:42:28;;;;;;;;;;;17.20;99.90;;;;;;5072704;28;19995;-76
2022/07/20 01:44:54;;;;;;;;;;;17.10;99.90;;;;;;5072516;28;19991;-75
2022/07/20 01:47:19;;;;;;;;;;;17.20;99.90;;;;;;5071371;28;19916;-75
2022/07/20 01:49:45;;;;;;;;;;;17.10;99.90;;;;;;5071845;28;19931;-75
2022/07/20 01:52:11;;;;;;;;;;;17.20;99.90;;;;;;5071664;28;19943;-75
2022/07/20 01:54:36;;;;;;;;;;;17.30;99.90;;;;;;5054552;28;19905;-75
2022/07/20 01:57:03;;;;;;;;;;;17.20;99.90;;;;;;5071844;28;19915;-75
2022/07/20 01:59:28;;;;;;;;;;;17.30;99.90;;;;;;5072301;28;19908;-75
2022/07/20 02:01:54;;;;;;;;;;;17.30;99.90;;;;;;5072280;28;20283;-75
2022/07/20 02:04:19;;;;;;;;;;;17.20;99.90;;;;;;5071729;28;19904;-76
2022/07/20 02:06:45;;;;;;;;;;;17.20;99.90;;;;;;5054463;28;19909;-76
2022/07/20 02:09:11;;;;;;;;;;;17.20;99.90;;;;;;5071873;28;19904;-75
2022/07/20 02:11:36;;;;;;;;;;;17.20;99.90;;;;;;5072542;28;19911;-76
2022/07/20 02:14:02;;;;;;;;;;;17.20;99.90;;;;;;5071721;28;19951;-76
2022/07/20 02:16:28;;;;;;;;;;;17.10;99.90;;;;;;5071802;28;20011;-76
2022/07/20 02:18:57;;;;;;;;;;;17.10;99.90;;;;;;5075280;28;19912;-76
2022/07/20 02:21:23;;;;;;;;;;;17.10;99.90;;;;;;5075352;28;20461;-75
2022/07/20 02:23:50;;;;;;;;;;;17.00;99.90;;;;;;5075259;28;19904;-75
2022/07/20 02:26:16;;;;;;;;;;;17.00;99.90;;;;;;5074670;28;19905;-76
2022/07/20 02:28:41;;;;;;;;;;;17.00;99.90;;;;;;5075477;28;19905;-75
2022/07/20 02:31:07;;;;;;;;;;;17.00;99.90;;;;;;5074863;28;20413;-75
2022/07/20 02:33:33;;;;;;;;;;;17.00;99.90;;;;;;5075472;28;19908;-76
2022/07/20 02:35:58;;;;;;;;;;;17.00;99.90;;;;;;5075088;28;19908;-76
2022/07/20 02:38:24;;;;;;;;;;;17.00;99.90;;;;;;5074666;28;19915;-75
2022/07/20 02:40:50;;;;;;;;;;;17.00;99.90;;;;;;5075106;28;19904;-75
2022/07/20 02:43:16;;;;;;;;;;;17.00;99.90;;;;;;5074182;28;19904;-75
2022/07/20 02:45:41;;;;;;;;;;;17.00;99.90;;;;;;5075678;28;19904;-76
2022/07/20 02:48:07;;;;;;;;;;;17.00;99.90;;;;;;5074672;28;19923;-75
2022/07/20 02:50:33;;;;;;;;;;;17.00;99.90;;;;;;5075019;28;20270;-76
2022/07/20 02:53:00;;;;;;;;;;;17.00;99.90;;;;;;5074918;28;19905;-76
2022/07/20 02:55:25;;;;;;;;;;;16.90;99.90;;;;;;5056386;28;19931;-76
2022/07/20 02:57:52;;;;;;;;;;;16.90;99.90;;;;;;5074974;28;20303;-76
2022/07/20 03:00:18;;;;;;;;;;;16.90;99.90;;;;;;5074077;28;19918;-75
2022/07/20 03:02:43;;;;;;;;;;;16.90;99.90;;;;;;5074610;28;19999;-75
2022/07/20 03:05:09;;;;;;;;;;;16.80;99.90;;;;;;5073907;28;19994;-74
2022/07/20 03:07:35;;;;;;;;;;;16.80;99.90;;;;;;5075047;28;19996;-75
2022/07/20 03:10:00;;;;;;;;;;;16.80;99.90;;;;;;5074290;28;19950;-75
2022/07/20 03:12:26;;;;;;;;;;;16.70;99.90;;;;;;5074005;28;19910;-75
2022/07/20 03:14:52;;;;;;;;;;;16.60;99.90;;;;;;5074599;28;19951;-75
2022/07/20 03:17:17;;;;;;;;;;;16.70;99.90;;;;;;5074230;28;19915;-75
2022/07/20 03:19:46;;;;;;;;;;;16.60;99.90;;;;;;5074406;28;19912;-75
2022/07/20 03:22:11;;;;;;;;;;;16.70;99.90;;;;;;5074327;28;19904;-75
2022/07/20 03:24:37;;;;;;;;;;;16.60;99.90;;;;;;5074122;28;19905;-75
2022/07/20 03:27:03;;;;;;;;;;;16.60;99.90;;;;;;5074200;28;19931;-75
2022/07/20 03:29:29;;;;;;;;;;;16.60;99.90;;;;;;5072934;28;19958;-75
2022/07/20 03:31:54;;;;;;;;;;;16.60;99.90;;;;;;5074355;28;19911;-75
2022/07/20 03:34:20;;;;;;;;;;;16.60;99.90;;;;;;5056113;28;20366;-75
2022/07/20 03:36:45;;;;;;;;;;;16.60;99.90;;;;;;5074302;28;19916;-75
2022/07/20 03:39:11;;;;;;;;;;;16.60;99.90;;;;;;5073591;28;20379;-75
2022/07/20 03:41:37;;;;;;;;;;;16.70;99.90;;;;;;5073690;28;19904;-76
2022/07/20 03:44:02;;;;;;;;;;;16.70;99.90;;;;;;5073898;28;19908;-75
2022/07/20 03:46:28;;;;;;;;;;;16.70;99.90;;;;;;5073175;28;19991;-75
2022/07/20 03:48:53;;;;;;;;;;;16.70;99.90;;;;;;5055815;28;19996;-75
2022/07/20 03:51:19;;;;;;;;;;;16.70;99.90;;;;;;5073311;28;19904;-75
2022/07/20 03:53:46;;;;;;;;;;;16.70;99.90;;;;;;5073499;28;19911;-75
2022/07/20 03:56:11;;;;;;;;;;;16.70;99.90;;;;;;5073083;28;19931;-75
2022/07/20 03:58:37;;;;;;;;;;;16.70;99.90;;;;;;5055751;28;19909;-75
2022/07/20 04:01:03;;;;;;;;;;;16.70;99.90;;;;;;5073745;28;19908;-75
2022/07/20 04:03:28;;;;;;;;;;;16.80;99.90;;;;;;5073117;28;19904;-75
2022/07/20 04:05:54;;;;;;;;;;;16.70;99.90;;;;;;5073525;28;19948;-75
2022/07/20 04:08:19;;;;;;;;;;;16.70;99.90;;;;;;5073030;28;19948;-75
2022/07/20 04:10:45;;;;;;;;;;;16.70;99.90;;;;;;5073405;28;20305;-75
2022/07/20 04:13:10;;;;;;;;;;;16.70;99.90;;;;;;5072912;28;19904;-75
2022/07/20 04:15:36;;;;;;;;;;;16.60;99.90;;;;;;5073316;28;19905;-75
2022/07/20 04:18:02;;;;;;;;;;;16.60;99.90;;;;;;5055465;28;20370;-75
2022/07/20 04:20:27;;;;;;;;;;;16.70;99.90;;;;;;5072494;28;19905;-75
2022/07/20 04:22:53;;;;;;;;;;;16.60;99.90;;;;;;5073666;28;20285;-75
2022/07/20 04:25:19;;;;;;;;;;;16.60;99.90;;;;;;5072419;28;19943;-75
2022/07/20 04:27:44;;;;;;;;;;;16.60;99.90;;;;;;5073177;28;19911;-75
2022/07/20 04:30:10;;;;;;;;;;;16.60;99.90;;;;;;5072967;28;20370;-75
2022/07/20 04:32:36;;;;;;;;;;;16.50;99.90;;;;;;5054834;28;20228;-76
2022/07/20 04:35:02;;;;;;;;;;;16.40;99.90;;;;;;5072903;28;20278;-76
2022/07/20 04:37:27;;;;;;;;;;;16.40;99.90;;;;;;5054631;28;20442;-76
2022/07/20 04:39:53;;;;;;;;;;;16.30;99.90;;;;;;5072878;28;20015;-75
2022/07/20 04:42:19;;;;;;;;;;;16.30;99.90;;;;;;5072368;28;19904;-75
2022/07/20 04:44:44;;;;;;;;;;;16.20;99.90;;;;;;5073029;28;19955;-75
2022/07/20 04:47:10;;;;;;;;;;;16.30;99.90;;;;;;5072700;28;20293;-75
2022/07/20 04:49:35;;;;;;;;;;;16.30;99.90;;;;;;5072398;28;19916;-74
2022/07/20 04:52:02;;;;;;;;;;;16.10;99.90;;;;;;5072532;28;19921;-74
2022/07/20 04:54:28;;;;;;;;;;;16.20;99.90;;;;;;5072510;28;19911;-74
2022/07/20 04:56:54;;;;;;;;;;;16.20;99.90;;;;;;5072825;28;20313;-74
2022/07/20 04:59:19;;;;;;;;;;;16.20;99.90;;;;;;5072266;28;20351;-75
2022/07/20 05:01:45;;;;;;;;;;;16.30;99.90;;;;;;5073049;28;19927;-75
2022/07/20 05:04:11;;;;;;;;;;;16.20;99.90;;;;;;5072722;28;19974;-75
2022/07/20 05:06:36;;;;;;;;;;;16.30;99.90;;;;;;5054285;28;20251;-74
2022/07/20 05:09:03;;;;;;;;;;;16.30;99.90;;;;;;5072710;28;19904;-75
2022/07/20 05:11:29;;;;;;;;;;;16.40;99.90;;;;;;5072022;28;20082;-75
2022/07/20 05:13:55;;;;;;;;;;;16.50;99.90;;;;;;5072646;28;20307;-75
2022/07/20 05:16:21;;;;;;;;;;;16.60;99.90;;;;;;5072163;28;19913;-75
2022/07/20 05:18:46;;;;;;;;;;;16.60;99.90;;;;;;5072540;28;19904;-74
2022/07/20 05:21:12;;;;;;;;;;;16.70;99.90;;;;;;5072580;28;19958;-74
2022/07/20 05:23:37;;;;;;;;;;;16.80;99.90;;;;;;5072011;28;19905;-74
2022/07/20 05:26:03;;;;;;;;;;;16.70;99.90;;;;;;5072342;28;19916;-75
2022/07/20 05:28:29;;;;;;;;;;;16.80;99.90;;;;;;5071938;28;19912;-74
2022/07/20 05:30:55;;;;;;;;;;;16.70;99.90;;;;;;5072171;28;20358;-74
2022/07/20 05:33:21;;;;;;;;;;;16.70;99.90;;;;;;5071640;28;19904;-74
2022/07/20 05:35:49;;;;;;;;;;;16.70;99.90;;;;;;5072612;28;20255;-74
2022/07/20 05:38:14;;;;;;;;;;;16.70;99.90;;;;;;5072063;28;19904;-74
2022/07/20 05:40:40;;;;;;;;;;;16.80;99.90;;;;;;5072467;28;19930;-75
2022/07/20 05:43:06;;;;;;;;;;;16.80;99.90;;;;;;5072325;28;20274;-75
2022/07/20 05:45:31;;;;;;;;;;;16.70;99.90;;;;;;5071578;28;19904;-75
2022/07/20 05:47:57;;;;;;;;;;;16.70;99.90;;;;;;5071880;28;19920;-74
2022/07/20 05:50:23;;;;;;;;;;;16.70;99.90;;;;;;5071379;28;19912;-75
2022/07/20 05:52:48;;;;;;;;;;;16.80;99.90;;;;;;5074051;28;19995;-76
2022/07/20 05:55:15;;;;;;;;;;;16.80;99.90;;;;;;5075932;28;19904;-74
2022/07/20 05:57:40;;;;;;;;;;;16.80;99.90;;;;;;5075466;28;19916;-75
2022/07/20 06:00:07;;;;;;;;;;;16.80;99.90;;;;;;5075645;28;19913;-75
2022/07/20 06:02:32;;;;;;;;;;;16.80;99.90;;;;;;5075401;28;19904;-75
2022/07/20 06:04:58;;;;;;;;;;;16.80;99.90;;;;;;5075947;28;19911;-76
2022/07/20 06:07:24;;;;;;;;;;;16.90;99.90;;;;;;5074656;28;19970;-73
2022/07/20 06:09:49;;;;;;;;;;;16.80;99.90;;;;;;5075541;28;19905;-74
2022/07/20 06:12:15;;;;;;;;;;;16.80;99.90;;;;;;5075614;28;20401;-74
2022/07/20 06:14:41;;;;;;;;;;;16.90;99.90;;;;;;5074987;28;19904;-73
2022/07/20 06:17:06;;;;;;;;;;;16.90;99.90;;;;;;5075306;28;19913;-74
2022/07/20 06:19:32;;;;;;;;;;;16.90;99.90;;;;;;5075109;28;19904;-74
2022/07/20 06:21:58;;;;;;;;;;;16.90;99.90;;;;;;5075670;28;20270;-75
2022/07/20 06:24:23;;;;;;;;;;;16.80;99.90;;;;;;5074915;28;19908;-75
2022/07/20 06:26:49;;;;;;;;;;;16.90;99.90;;;;;;5075448;28;20321;-75
2022/07/20 06:29:14;;;;;;;;;;;16.80;99.90;;;;;;5075798;28;19999;-76
2022/07/20 06:31:40;;;;;;;;;;;16.70;99.90;;;;;;5074757;28;19908;-75
2022/07/20 06:34:06;;;;;;;;;;;16.70;99.90;;;;;;5075272;28;19904;-74
2022/07/20 06:36:32;;;;;;;;;;;16.70;99.90;;;;;;5074508;28;20351;-75
2022/07/20 06:38:58;;;;;;;;;;;16.80;99.90;;;;;;5075152;28;19916;-76
2022/07/20 06:41:23;;;;;;;;;;;16.70;99.90;;;;;;5074627;28;19908;-75
2022/07/20 06:43:49;;;;;;;;;;;16.70;99.90;;;;;;5075350;28;19904;-74
2022/07/20 06:46:14;;;;;;;;;;;16.70;99.90;;;;;;5074590;28;19904;-74
2022/07/20 06:48:40;;;;;;;;;;;16.70;99.90;;;;;;5074604;28;19926;-75
2022/07/20 06:51:06;;;;;;;;;;;16.70;99.90;;;;;;5074795;28;19995;-75
2022/07/20 06:53:31;;;;;;;;;;;16.70;99.90;;;;;;5074575;28;20359;-74
2022/07/20 06:55:57;;;;;;;;;;;16.70;99.90;;;;;;5075013;28;19917;-75
2022/07/20 06:58:22;;;;;;;;;;;16.70;99.90;;;;;;5073776;28;19998;-75
2022/07/20 07:00:49;;;;;;;;;;;16.70;99.90;;;;;;5074523;28;19904;-75
2022/07/20 07:03:14;;;;;;;;;;;16.70;99.90;;;;;;5073562;28;19955;-74
2022/07/20 07:05:40;;;;;;;;;;;16.70;99.90;;;;;;5073416;28;19908;-75
2022/07/20 07:08:06;;;;;;;;;;;16.60;99.90;;;;;;5074251;28;19904;-76
2022/07/20 07:10:31;;;;;;;;;;;16.60;99.90;;;;;;5073688;28;19995;-75
2022/07/20 07:12:57;;;;;;;;;;;16.60;99.90;;;;;;5074240;28;19904;-75
2022/07/20 07:15:22;;;;;;;;;;;16.70;99.90;;;;;;5073399;28;19947;-75
2022/07/20 07:17:48;;;;;;;;;;;16.70;99.90;;;;;;5074214;28;19912;-75
2022/07/20 07:20:13;;;;;;;;;;;16.70;99.90;;;;;;5074517;28;19908;-75
2022/07/20 07:22:39;;;;;;;;;;;16.70;99.90;;;;;;5073688;28;20409;-75
2022/07/20 07:25:05;;;;;;;;;;;16.80;99.90;;;;;;5074040;28;19999;-74
2022/07/20 07:27:30;;;;;;;;;;;16.90;99.90;;;;;;5055616;28;19911;-74
2022/07/20 07:29:56;;;;;;;;;;;16.90;99.90;;;;;;5073980;28;20445;-74
2022/07/20 07:32:21;;;;;;;;;;;16.90;99.90;;;;;;5074100;28;19904;-73
2022/07/20 07:34:47;;;;;;;;;;;17.00;99.90;;;;;;5056289;28;19912;-76
2022/07/20 07:37:13;;;;;;;;;;;17.20;99.90;;;;;;5074122;28;19917;-75
2022/07/20 07:39:38;;;;;;;;;;;17.20;99.90;;;;;;5055075;28;19905;-75
2022/07/20 07:42:04;;;;;;;;;;;17.30;99.90;;;;;;5073963;28;19978;-75
2022/07/20 07:44:29;;;;;;;;;;;17.40;99.90;;;;;;5073304;28;19927;-75
2022/07/20 07:46:55;;;;;;;;;;;17.50;99.90;;;;;;5073949;28;19923;-75
2022/07/20 07:49:21;;;;;;;;;;;17.50;99.90;;;;;;5073608;28;19904;-76
2022/07/20 07:51:46;;;;;;;;;;;17.50;99.90;;;;;;5073453;28;19905;-75
2022/07/20 07:54:12;;;;;;;;;;;17.50;99.90;;;;;;5073801;28;19905;-75
2022/07/20 07:56:37;;;;;;;;;;;17.60;99.90;;;;;;5072912;28;19912;-74
2022/07/20 07:59:03;;;;;;;;;;;17.50;99.90;;;;;;5073901;28;19947;-75
2022/07/20 08:01:29;;;;;;;;;;;17.60;99.90;;;;;;5073100;28;19904;-76
2022/07/20 08:03:55;;;;;;;;;;;17.60;99.90;;;;;;5073479;28;19911;-77
2022/07/20 08:06:20;;;;;;;;;;;17.60;99.90;;;;;;5073629;28;19905;-77
2022/07/20 08:08:46;;;;;;;;;;;17.60;99.90;;;;;;5073055;28;20432;-76
2022/07/20 08:11:11;;;;;;;;;;;17.60;99.90;;;;;;5073649;28;19904;-75
2022/07/20 08:13:37;;;;;;;;;;;17.70;99.90;;;;;;5073239;28;19911;-76
2022/07/20 08:16:03;;;;;;;;;;;17.80;99.90;;;;;;5072788;28;19916;-76
2022/07/20 08:18:28;;;;;;;;;;;17.90;99.90;;;;;;5072730;28;20402;-76
2022/07/20 08:20:54;;;;;;;;;;;18.00;99.90;;;;;;5073218;28;19943;-76
2022/07/20 08:23:20;;;;;;;;;;;18.00;99.90;;;;;;5073032;28;19908;-76
2022/07/20 08:25:45;;;;;;;;;;;18.10;99.90;;;;;;5072742;28;19900;-74
2022/07/20 08:28:12;;;;;;;;;;;18.00;99.90;;;;;;5055141;28;19911;-75
2022/07/20 08:30:42;;;;;;;;;;;18.10;99.90;;;;;;5072688;28;19911;-75
2022/07/20 08:33:07;;;;;;;;;;;18.10;99.90;;;;;;5073155;28;19958;-74
2022/07/20 08:35:33;;;;;;;;;;;18.10;99.90;;;;;;5072484;28;19939;-75
2022/07/20 08:37:59;;;;;;;;;;;18.00;99.90;;;;;;5073134;28;20011;-74
2022/07/20 08:40:25;;;;;;;;;;;18.00;99.90;;;;;;5073166;28;20333;-76
2022/07/20 08:42:51;;;;;;;;;;;18.00;99.90;;;;;;5072406;28;19953;-76
2022/07/20 08:45:16;;;;;;;;;;;18.10;99.90;;;;;;5054606;28;19904;-75
2022/07/20 08:47:42;;;;;;;;;;;18.10;99.90;;;;;;5071650;28;19923;-75
2022/07/20 08:50:08;;;;;;;;;;;18.10;99.90;;;;;;5072736;28;19966;-76
2022/07/20 08:52:34;;;;;;;;;;;18.20;99.90;;;;;;5072074;28;20448;-75
2022/07/20 08:54:59;;;;;;;;;;;18.20;99.90;;;;;;5072764;28;20305;-74
2022/07/20 08:57:25;;;;;;;;;;;18.30;99.90;;;;;;5072892;28;19916;-74
2022/07/20 08:59:50;;;;;;;;;;;18.40;99.90;;;;;;5072498;28;19985;-75
2022/07/20 09:02:16;;;;;;;;;;;18.40;99.90;;;;;;5055011;28;19908;-75
2022/07/20 09:04:51;;;;;;;;;;;18.60;99.90;;;;;;5072481;28;19904;-75
2022/07/20 09:07:17;;;;;;;;;;;18.60;99.90;;;;;;5072539;28;19951;-75
2022/07/20 09:09:43;;;;;;;;;;;18.70;99.90;;;;;;5071854;28;19943;-75
2022/07/20 09:12:08;;;;;;;;;;;18.70;99.90;;;;;;5072732;28;19904;-75
2022/07/20 09:14:37;;;;;;;;;;;18.80;99.90;;;;;;5071799;28;20339;-75
2022/07/20 09:17:15;;;;;;;;;;;18.90;99.90;;;;;;5072989;28;19912;-74
2022/07/20 09:20:01;;;;;;;;;;;18.90;99.90;;;;;;5073530;28;19904;-76
2022/07/20 09:22:39;;;;;;;;;;;18.90;99.90;;;;;;5055207;28;19905;-76
2022/07/20 09:25:08;;;;;;;;;;;18.80;99.90;;;;;;5072469;28;19911;-74
2022/07/20 09:27:34;;;;;;;;;;;18.80;99.90;;;;;;5073472;28;19987;-74
2022/07/20 09:30:09;;;;;;;;;;;18.90;99.90;;;;;;5076178;28;19966;-76
2022/07/20 09:32:48;;;;;;;;;;;18.80;99.90;;;;;;5075869;28;19904;-75
2022/07/20 09:35:13;;;;;;;;;;;18.80;99.90;;;;;;5076317;28;20327;-75
2022/07/20 09:37:39;;;;;;;;;;;18.80;99.90;;;;;;5075764;28;19958;-75
2022/07/20 09:40:05;;;;;;;;;;;18.80;99.90;;;;;;5076274;28;20345;-77
2022/07/20 09:42:37;;;;;;;;;;;18.60;99.90;;;;;;5077654;28;19994;-76
2022/07/20 09:45:19;;;;;;;;;;;18.60;99.90;;;;;;5060891;28;19908;-77
2022/07/20 09:48:02;;;;;;;;;;;18.50;99.90;;;;;;5059912;28;19966;-75
2022/07/20 09:50:31;;;;;;;;;;;18.70;99.90;;;;;;5077860;28;19940;-76
2022/07/20 09:52:57;;;;;;;;;;;18.80;99.90;;;;;;5058511;28;19911;-76
2022/07/20 09:55:22;;;;;;;;;;;18.90;99.90;;;;;;5077212;28;19905;-76
2022/07/20 09:57:52;;;;;;;;;;;18.90;99.90;;;;;;5075672;28;20255;-74
2022/07/20 10:00:18;;;;;;;;;;;18.90;99.90;;;;;;5075759;28;19957;-74
2022/07/20 10:02:46;;;;;;;;;;;18.90;99.90;;;;;;5075134;28;19908;-75
2022/07/20 10:05:12;;;;;;;;;;;19.00;99.90;;;;;;5076347;28;19946;-73
2022/07/20 10:07:38;;;;;;;;;;;19.00;99.90;;;;;;5076320;28;19905;-76
2022/07/20 10:10:04;;;;;;;;;;;19.00;99.90;;;;;;5075274;28;19908;-75
2022/07/20 10:12:29;;;;;;;;;;;19.00;99.90;;;;;;5075359;28;19938;-75
2022/07/20 10:14:57;;;;;;;;;;;19.20;99.90;;;;;;5074596;28;20359;-75
2022/07/20 10:17:22;;;;;;;;;;;19.30;99.90;;;;;;5074667;28;19919;-75
2022/07/20 10:19:48;;;;;;;;;;;19.20;99.90;;;;;;5074492;28;19904;-75
2022/07/20 10:22:14;;;;;;;;;;;19.20;99.90;;;;;;5074802;28;19904;-75
2022/07/20 10:24:42;;;;;;;;;;;19.20;99.90;;;;;;5074347;28;19966;-75
2022/07/20 10:27:08;;;;;;;;;;;19.20;99.90;;;;;;5074982;28;19904;-75
2022/07/20 10:29:41;;;;;;;;;;;19.30;99.90;;;;;;5074350;28;19930;-74
2022/07/20 10:32:10;;;;;;;;;;;19.30;99.90;;;;;;5074746;28;19958;-74
2022/07/20 10:34:37;;;;;;;;;;;19.20;99.90;;;;;;5074069;28;19911;-74
2022/07/20 10:37:22;;;;;;;;;;;19.20;99.90;;;;;;5074749;28;19912;-74
2022/07/20 10:39:48;;;;;;;;;;;19.30;99.90;;;;;;5073786;28;20355;-74
2022/07/20 10:42:33;;;;;;;;;;;19.40;99.90;;;;;;5074246;28;19909;-74
2022/07/20 10:45:27;;;;;;;;;;;19.50;99.90;;;;;;5074441;28;19915;-75
2022/07/20 10:47:55;;;;;;;;;;;19.60;99.90;;;;;;5051650;28;19979;-74
2022/07/20 10:50:22;;;;;;;;;;;19.60;99.90;;;;;;5074375;28;20015;-74
2022/07/20 10:52:48;;;;;;;;;;;19.50;99.90;;;;;;5073429;28;19987;-74
2022/07/20 10:55:32;;;;;;;;;;;19.80;99.90;;;;;;5074307;28;20006;-75
2022/07/20 10:57:58;;;;;;;;;;;20.00;99.90;;;;;;5074161;28;19923;-75
2022/07/20 11:00:29;;;;;;;;;;;20.10;99.90;;;;;;5074279;28;20002;-75
2022/07/20 11:02:56;;;;;;;;;;;20.10;99.90;;;;;;5073733;28;19950;-75
2022/07/20 11:05:22;;;;;;;;;;;20.30;99.90;;;;;;5074445;28;20007;-75
2022/07/20 11:07:48;;;;;;;;;;;20.40;99.90;;;;;;5073779;28;19944;-75
2022/07/20 11:10:19;;;;;;;;;;;20.50;99.90;;;;;;5074437;28;20366;-75
2022/07/20 11:12:52;;;;;;;;;;;20.60;99.90;;;;;;5074004;28;19948;-75
2022/07/20 11:15:18;;;;;;;;;;;20.50;99.90;;;;;;5074678;28;19990;-75
2022/07/20 11:17:43;;;;;;;;;;;20.40;99.90;;;;;;5073325;28;20029;-75
2022/07/20 11:20:09;;;;;;;;;;;20.30;99.90;;;;;;5073979;28;19971;-75
2022/07/20 11:22:35;;;;;;;;;;;20.10;99.90;;;;;;5073014;28;19911;-75
2022/07/20 11:25:00;;;;;;;;;;;20.00;99.90;;;;;;5074370;28;20395;-75
2022/07/20 11:27:26;;;;;;;;;;;20.00;99.90;;;;;;5074515;28;19904;-75
2022/07/20 11:29:52;;;;;;;;;;;20.00;99.90;;;;;;5073579;28;20584;-74
2022/07/20 11:32:18;;;;;;;;;;;20.00;99.90;;;;;;5074232;28;19908;-74
2022/07/20 11:34:45;;;;;;;;;;;20.10;99.90;;;;;;5073551;28;19914;-74
2022/07/20 11:37:13;;;;;;;;;;;20.10;99.90;;;;;;5074011;28;20275;-74
2022/07/20 11:39:39;;;;;;;;;;;20.00;99.90;;;;;;5073755;28;19905;-75
2022/07/20 11:42:12;;;;;;;;;;;20.00;99.90;;;;;;5073828;28;20366;-75
2022/07/20 11:44:38;;;;;;;;;;;20.00;99.90;;;;;;5073642;28;19910;-75
2022/07/20 11:47:04;;;;;;;;;;;20.20;99.90;;;;;;5074213;28;19923;-75
2022/07/20 11:49:30;;;;;;;;;;;20.30;99.90;;;;;;5072864;28;19905;-75
2022/07/20 11:51:57;;;;;;;;;;;20.40;99.90;;;;;;5055176;28;19904;-75
2022/07/20 11:54:23;;;;;;;;;;;20.50;99.90;;;;;;5055721;28;19944;-75
2022/07/20 11:56:50;;;;;;;;;;;20.50;99.90;;;;;;5073098;28;19919;-75
2022/07/20 11:59:16;;;;;;;;;;;20.60;99.90;;;;;;5073683;28;19905;-75
2022/07/20 12:01:42;;;;;;;;;;;20.70;99.90;;;;;;5072834;28;20373;-75
2022/07/20 12:04:08;;;;;;;;;;;20.90;99.90;;;;;;5055792;28;19904;-76
2022/07/20 12:06:35;;;;;;;;;;;20.90;99.90;;;;;;5073226;28;20271;-76
2022/07/20 12:09:01;;;;;;;;;;;20.80;99.90;;;;;;5072982;28;19904;-76
2022/07/20 12:11:26;;;;;;;;;;;20.70;99.90;;;;;;5073122;28;19930;-76
2022/07/20 12:13:52;;;;;;;;;;;20.50;99.90;;;;;;5072841;28;19905;-76
2022/07/20 12:16:18;;;;;;;;;;;20.30;99.90;;;;;;5072748;28;19913;-75
2022/07/20 12:18:51;;;;;;;;;;;20.30;99.90;;;;;;5072471;28;19951;-75
2022/07/20 12:21:18;;;;;;;;;;;20.30;99.90;;;;;;5073211;28;20369;-75
2022/07/20 12:23:45;;;;;;;;;;;20.20;99.90;;;;;;5072215;28;19908;-75
2022/07/20 12:26:21;;;;;;;;;;;20.30;99.90;;;;;;5072631;28;19936;-75
2022/07/20 12:28:47;;;;;;;;;;;20.30;99.90;;;;;;5072088;28;19904;-75
2022/07/20 12:31:14;;;;;;;;;;;20.40;99.90;;;;;;5072318;28;19911;-75
2022/07/20 12:33:59;;;;;;;;;;;20.50;99.90;;;;;;5071940;28;20007;-75
2022/07/20 12:36:31;;;;;;;;;;;20.40;99.90;;;;;;5072110;28;20377;-75
2022/07/20 12:38:56;;;;;;;;;;;20.50;99.90;;;;;;5071826;28;19908;-75
2022/07/20 12:41:22;;;;;;;;;;;20.40;99.90;;;;;;5072243;28;20271;-75
2022/07/20 12:43:47;;;;;;;;;;;20.30;99.90;;;;;;5053917;28;19999;-75
2022/07/20 12:46:16;;;;;;;;;;;20.40;99.90;;;;;;5071735;28;19958;-76
2022/07/20 12:48:44;;;;;;;;;;;20.40;99.90;;;;;;5071519;28;19955;-75
2022/07/20 12:51:10;;;;;;;;;;;20.50;99.90;;;;;;5072360;28;19909;-75
2022/07/20 12:53:37;;;;;;;;;;;20.50;99.90;;;;;;5072121;28;19935;-75
2022/07/20 12:56:03;;;;;;;;;;;20.40;99.90;;;;;;5071808;28;19908;-75
2022/07/20 12:58:29;;;;;;;;;;;20.40;99.90;;;;;;5072341;28;19905;-75
2022/07/20 13:00:55;;;;;;;;;;;20.40;99.90;;;;;;5053241;28;19930;-75
2022/07/20 13:03:20;;;;;;;;;;;20.30;99.90;;;;;;5072350;28;20004;-74
2022/07/20 13:05:46;;;;;;;;;;;20.20;99.90;;;;;;5071039;28;19995;-75
2022/07/20 13:08:11;;;;;;;;;;;20.30;99.90;;;;;;5071835;28;19908;-75
2022/07/20 13:10:37;;;;;;;;;;;20.30;99.90;;;;;;5071858;28;19923;-75
2022/07/20 13:13:02;;;;;;;;;;;20.50;99.90;;;;;;5072053;28;19904;-74
2022/07/20 13:15:28;;;;;;;;;;;20.60;99.90;;;;;;5072034;28;19904;-75
2022/07/20 13:17:54;;;;;;;;;;;20.70;99.90;;;;;;5052970;28;20363;-75
2022/07/20 13:20:19;;;;;;;;;;;20.70;99.90;;;;;;5071847;28;19908;-74
2022/07/20 13:22:45;;;;;;;;;;;20.80;99.90;;;;;;5071244;28;19958;-75
2022/07/20 13:25:11;;;;;;;;;;;20.90;99.90;;;;;;5072038;28;19905;-74
2022/07/20 13:27:37;;;;;;;;;;;20.90;99.90;;;;;;5053781;28;19904;-75
2022/07/20 13:30:03;;;;;;;;;;;20.90;99.90;;;;;;5071983;28;20413;-75
2022/07/20 13:32:29;;;;;;;;;;;20.80;99.90;;;;;;5071812;28;19912;-75
2022/07/20 13:34:54;;;;;;;;;;;20.80;99.90;;;;;;5071286;28;19905;-75
2022/07/20 13:37:20;;;;;;;;;;;20.80;99.90;;;;;;5071900;28;20282;-75
2022/07/20 13:39:45;;;;;;;;;;;20.80;99.90;;;;;;5071569;28;19958;-74
2022/07/20 13:42:11;;;;;;;;;;;20.80;99.90;;;;;;5071742;28;19943;-75
2022/07/20 13:44:38;;;;;;;;;;;20.80;99.90;;;;;;5072080;28;19923;-75
2022/07/20 13:47:04;;;;;;;;;;;20.90;99.90;;;;;;5070980;28;19975;-75
2022/07/20 13:49:30;;;;;;;;;;;20.90;99.90;;;;;;5072215;28;20351;-75
2022/07/20 13:51:55;;;;;;;;;;;20.90;99.90;;;;;;5071351;28;19911;-74
2022/07/20 13:54:21;;;;;;;;;;;20.90;99.90;;;;;;5071998;28;19958;-76
2022/07/20 13:56:46;;;;;;;;;;;20.90;99.90;;;;;;5071483;28;19913;-75
2022/07/20 13:59:12;;;;;;;;;;;20.90;99.90;;;;;;5072108;28;19999;-76
2022/07/20 14:01:44;;;;;;;;;;;20.80;99.90;;;;;;5072354;28;19999;-74
2022/07/20 14:04:10;;;;;;;;;;;20.70;99.90;;;;;;5072220;28;19934;-76
2022/07/20 14:06:36;;;;;;;;;;;20.70;99.90;;;;;;5072051;28;19911;-76
2022/07/20 14:09:02;;;;;;;;;;;20.60;99.90;;;;;;5071504;28;19904;-76
2022/07/20 14:11:27;;;;;;;;;;;20.60;99.90;;;;;;5072521;28;19911;-76
2022/07/20 14:13:53;;;;;;;;;;;20.70;99.90;;;;;;5073292;28;19951;-77